Time;durP1;ratioP1;P1;durP2;ratioP2;P2;SDS_P1;SDS_P2;PMS_P1;PMS_P2;Temp;Humidity;BMP_temperature;BMP_pressure;BME280_temperature;BME280_humidity;BME280_pressure;Samples;Min_cycle;Max_cycle;Signal;HPM_P1;HPM_P2
2022/08/15 00:00:34;;;;;;;10.13;9.18;;;;;;;;;;5071757;28;20360;-57
2022/08/15 00:03:00;;;;;;;11.80;9.38;;;;;;;;;;5071243;28;20029;-58
2022/08/15 00:05:28;;;;;;;10.95;9.65;;;;;;;;;;5071298;28;20506;-58
2022/08/15 00:07:54;;;;;;;11.63;9.02;;;;;;;;;;5071318;28;20504;-58
2022/08/15 00:10:21;;;;;;;15.88;10.45;;;;;;;;;;5071352;28;20024;-57
2022/08/15 00:12:48;;;;;;;10.73;9.30;;;;;;;;;;5071161;28;20032;-57
2022/08/15 00:15:14;;;;;;;;;;;;;;;;;;5053784;28;20101;-57
2022/08/15 00:17:42;;;;;;;14.88;9.23;;;;;;;;;;5071159;28;20002;-57
2022/08/15 00:20:09;;;;;;;10.63;9.35;;;;;;;;;;5053132;28;20037;-58
2022/08/15 00:22:35;;;;;;;12.00;10.13;;;;;;;;;;5071067;28;20016;-58
2022/08/15 00:25:01;;;;;;;14.37;10.37;;;;;;;;;;5071262;28;20032;-58
2022/08/15 00:27:27;;;;;;;11.02;9.70;;;;;;;;;;5053042;28;20302;-57
2022/08/15 00:29:55;;;;;;;11.53;10.43;;;;;;;;;;5071095;28;20052;-58
2022/08/15 00:32:26;;;;;;;16.35;11.50;;;;;;;;;;5071088;28;20023;-58
2022/08/15 00:34:52;;;;;;;11.38;10.27;;;;;;;;;;5071182;28;20372;-56
2022/08/15 00:37:18;;;;;;;12.68;10.98;;;;;;;;;;5071054;28;20055;-57
2022/08/15 00:39:44;;;;;;;13.80;11.17;;;;;;;;;;5071039;28;20028;-57
2022/08/15 00:42:11;;;;;;;11.13;10.02;;;;;;;;;;5071024;28;20282;-55
2022/08/15 00:44:45;;;;;;;12.43;10.88;;;;;;;;;;5052830;28;20506;-58
2022/08/15 00:47:16;;;;;;;13.02;10.60;;;;;;;;;;5070777;28;20055;-58
2022/08/15 00:49:43;;;;;;;12.77;10.52;;;;;;;;;;5070869;28;20025;-58
2022/08/15 00:52:09;;;;;;;;;;;;;;;;;;5074101;28;20028;-58
2022/08/15 00:54:35;;;;;;;11.48;10.38;;;;;;;;;;5074687;28;20441;-58
2022/08/15 00:57:24;;;;;;;11.77;10.57;;;;;;;;;;5074617;28;20056;-56
2022/08/15 00:59:51;;;;;;;11.48;10.38;;;;;;;;;;5064240;28;20582;-58
2022/08/15 01:02:19;;;;;;;11.00;9.82;;;;;;;;;;5074621;28;20482;-58
2022/08/15 01:04:45;;;;;;;14.50;10.63;;;;;;;;;;5074427;28;20031;-58
2022/08/15 01:07:12;;;;;;;10.37;9.37;;;;;;;;;;5074443;28;20068;-59
2022/08/15 01:09:38;;;;;;;14.80;9.50;;;;;;;;;;5074530;28;20032;-58
2022/08/15 01:12:10;;;;;;;11.90;9.57;;;;;;;;;;5074447;28;20021;-58
2022/08/15 01:14:37;;;;;;;11.10;9.65;;;;;;;;;;5074601;28;20044;-58
2022/08/15 01:17:04;;;;;;;12.63;9.60;;;;;;;;;;5056286;28;20536;-59
2022/08/15 01:19:33;;;;;;;11.60;9.57;;;;;;;;;;5074249;28;20082;-58
2022/08/15 01:22:00;;;;;;;11.75;9.70;;;;;;;;;;5074308;28;20146;-58
2022/08/15 01:24:26;;;;;;;13.05;9.93;;;;;;;;;;5074004;28;20472;-55
2022/08/15 01:26:53;;;;;;;14.02;11.27;;;;;;;;;;5074153;28;20024;-58
2022/08/15 01:29:19;;;;;;;14.27;10.80;;;;;;;;;;5074127;28;20031;-58
2022/08/15 01:31:46;;;;;;;13.90;10.82;;;;;;;;;;5074135;28;20386;-58
2022/08/15 01:34:12;;;;;;;12.95;11.27;;;;;;;;;;5074015;28;20024;-58
2022/08/15 01:36:38;;;;;;;12.27;10.43;;;;;;;;;;5073925;28;20569;-58
2022/08/15 01:39:04;;;;;;;12.13;10.93;;;;;;;;;;5073835;28;20395;-59
2022/08/15 01:41:43;;;;;;;12.37;11.00;;;;;;;;;;5073884;28;20020;-57
2022/08/15 01:44:10;;;;;;;15.20;10.55;;;;;;;;;;5073818;28;20021;-59
2022/08/15 01:46:39;;;;;;;11.95;10.02;;;;;;;;;;5073689;28;20029;-59
2022/08/15 01:49:13;;;;;;;11.63;9.88;;;;;;;;;;5073744;28;20029;-59
2022/08/15 01:51:40;;;;;;;11.68;10.18;;;;;;;;;;5073707;28;20046;-58
2022/08/15 01:54:08;;;;;;;14.43;10.57;;;;;;;;;;5073585;28;20392;-59
2022/08/15 01:56:37;;;;;;;11.52;9.48;;;;;;;;;;5072555;28;20096;-58
2022/08/15 01:59:04;;;;;;;19.48;10.55;;;;;;;;;;5054665;28;20078;-59
2022/08/15 02:01:30;;;;;;;;;;;;;;;;;;5057314;28;20017;-59
2022/08/15 02:03:57;;;;;;;11.25;9.05;;;;;;;;;;5065399;28;19908;-59
2022/08/15 02:06:24;;;;;;;11.60;9.88;;;;;;;;;;5061652;28;20036;-59
2022/08/15 02:08:52;;;;;;;12.23;10.20;;;;;;;;;;5069515;28;20514;-58
2022/08/15 02:11:19;;;;;;;12.32;10.75;;;;;;;;;;5072904;28;20024;-58
2022/08/15 02:13:46;;;;;;;12.65;9.68;;;;;;;;;;5072720;28;20070;-58
2022/08/15 02:16:13;;;;;;;12.00;10.75;;;;;;;;;;5072735;28;20485;-58
2022/08/15 02:18:40;;;;;;;12.40;10.90;;;;;;;;;;5072835;28;20107;-57
2022/08/15 02:21:07;;;;;;;12.15;10.10;;;;;;;;;;5073047;28;20112;-58
2022/08/15 02:23:33;;;;;;;11.32;9.30;;;;;;;;;;5071554;28;20094;-57
2022/08/15 02:26:00;;;;;;;14.07;9.90;;;;;;;;;;5071838;28;20035;-58
2022/08/15 02:28:26;;;;;;;10.68;9.63;;;;;;;;;;5072622;28;20024;-58
2022/08/15 02:30:53;;;;;;;11.65;9.70;;;;;;;;;;5072651;28;20033;-57
2022/08/15 02:33:20;;;;;;;11.38;9.70;;;;;;;;;;5072193;28;20021;-58
2022/08/15 02:35:46;;;;;;;11.75;9.65;;;;;;;;;;5054447;28;20029;-57
2022/08/15 02:38:13;;;;;;;10.27;9.27;;;;;;;;;;5072461;28;20027;-58
2022/08/15 02:40:39;;;;;;;10.50;9.50;;;;;;;;;;5072673;28;20490;-58
2022/08/15 02:43:07;;;;;;;10.87;9.77;;;;;;;;;;5072238;28;20025;-58
2022/08/15 02:45:37;;;;;;;11.23;8.82;;;;;;;;;;5072169;28;20103;-56
2022/08/15 02:48:04;;;;;;;10.98;8.98;;;;;;;;;;5072406;28;20037;-58
2022/08/15 02:50:32;;;;;;;10.77;9.07;;;;;;;;;;5072268;28;20048;-58
2022/08/15 02:53:00;;;;;;;10.60;8.63;;;;;;;;;;5071986;28;20024;-57
2022/08/15 02:55:26;;;;;;;10.10;9.10;;;;;;;;;;5072259;28;20126;-58
2022/08/15 02:57:54;;;;;;;11.60;9.23;;;;;;;;;;5072200;28;20036;-58
2022/08/15 03:00:20;;;;;;;14.57;10.35;;;;;;;;;;5072008;28;20020;-57
2022/08/15 03:02:54;;;;;;;10.93;9.52;;;;;;;;;;5072268;28;20498;-58
2022/08/15 03:05:21;;;;;;;12.60;8.95;;;;;;;;;;5072190;28;20206;-57
2022/08/15 03:07:47;;;;;;;;;;;;;;;;;;5072496;28;20100;-56
2022/08/15 03:10:13;;;;;;;11.27;9.55;;;;;;;;;;5054146;28;20353;-58
2022/08/15 03:13:05;;;;;;;10.50;9.57;;;;;;;;;;5071776;28;20020;-58
2022/08/15 03:15:38;;;;;;;11.60;8.93;;;;;;;;;;5066612;28;20028;-59
2022/08/15 03:18:04;;;;;;;11.27;9.90;;;;;;;;;;5059760;28;20069;-57
2022/08/15 03:20:30;;;;;;;13.23;9.23;;;;;;;;;;5071713;28;20108;-58
2022/08/15 03:22:56;;;;;;;10.85;9.80;;;;;;;;;;5071414;28;20036;-58
2022/08/15 03:25:25;;;;;;;12.33;9.97;;;;;;;;;;5071556;28;20063;-56
2022/08/15 03:27:52;;;;;;;11.30;9.70;;;;;;;;;;5071602;28;20814;-56
2022/08/15 03:30:18;;;;;;;13.00;9.45;;;;;;;;;;5071298;28;20031;-57
2022/08/15 03:32:49;;;;;;;11.93;10.23;;;;;;;;;;5071708;28;20416;-58
2022/08/15 03:35:15;;;;;;;12.10;9.80;;;;;;;;;;5071695;28;20032;-57
2022/08/15 03:37:42;;;;;;;11.90;10.57;;;;;;;;;;5071345;28;20099;-58
2022/08/15 03:40:09;;;;;;;10.90;9.68;;;;;;;;;;5071209;28;20059;-56
2022/08/15 03:42:35;;;;;;;11.77;9.50;;;;;;;;;;5071158;28;20021;-57
2022/08/15 03:45:05;;;;;;;11.40;9.27;;;;;;;;;;5071245;28;20032;-58
2022/08/15 03:47:31;;;;;;;11.35;9.23;;;;;;;;;;5071131;28;20028;-58
2022/08/15 03:49:57;;;;;;;12.85;9.40;;;;;;;;;;5071226;28;20023;-56
2022/08/15 03:52:24;;;;;;;10.13;9.10;;;;;;;;;;5071255;28;20138;-58
2022/08/15 03:54:50;;;;;;;12.57;9.27;;;;;;;;;;5053054;28;20028;-59
2022/08/15 03:57:16;;;;;;;9.93;9.03;;;;;;;;;;5070791;28;20028;-57
2022/08/15 03:59:42;;;;;;;10.87;9.27;;;;;;;;;;5071262;28;20028;-59
2022/08/15 04:02:08;;;;;;;14.27;10.40;;;;;;;;;;5059716;28;20104;-59
2022/08/15 04:04:34;;;;;;;11.65;9.95;;;;;;;;;;5068744;28;20028;-59
2022/08/15 04:07:00;;;;;;;11.57;9.93;;;;;;;;;;5071320;28;20032;-58
2022/08/15 04:09:26;;;;;;;11.13;9.90;;;;;;;;;;5071747;28;20394;-59
2022/08/15 04:11:53;;;;;;;10.53;9.53;;;;;;;;;;5071210;28;20027;-59
2022/08/15 04:14:19;;;;;;;16.48;10.45;;;;;;;;;;5053305;28;20324;-59
2022/08/15 04:16:45;;;;;;;12.63;9.50;;;;;;;;;;5071256;28;20032;-58
2022/08/15 04:19:13;;;;;;;13.07;10.90;;;;;;;;;;5071371;28;20066;-59
2022/08/15 04:21:40;;;;;;;12.70;10.98;;;;;;;;;;5071284;28;20525;-58
2022/08/15 04:24:06;;;;;;;13.25;10.77;;;;;;;;;;5071194;28;20024;-59
2022/08/15 04:26:33;;;;;;;12.90;10.73;;;;;;;;;;5072760;28;20078;-59
2022/08/15 04:28:59;;;;;;;12.65;11.45;;;;;;;;;;5075362;28;20032;-57
2022/08/15 04:31:25;;;;;;;12.47;11.17;;;;;;;;;;5075388;28;20028;-57
2022/08/15 04:33:51;;;;;;;14.17;11.10;;;;;;;;;;5075199;28;20104;-58
2022/08/15 04:36:18;;;;;;;13.20;11.20;;;;;;;;;;5057169;28;20033;-59
2022/08/15 04:38:45;;;;;;;14.20;10.25;;;;;;;;;;5075136;28;20422;-59
2022/08/15 04:41:12;;;;;;;12.63;11.07;;;;;;;;;;5074279;28;20036;-57
2022/08/15 04:43:39;;;;;;;16.95;11.57;;;;;;;;;;5074924;28;20086;-59
2022/08/15 04:46:05;;;;;;;13.40;10.48;;;;;;;;;;5075026;28;20052;-56
2022/08/15 04:48:31;;;;;;;13.20;11.55;;;;;;;;;;5056957;28;20039;-58
2022/08/15 04:50:58;;;;;;;12.20;10.37;;;;;;;;;;5074950;28;20029;-58
2022/08/15 04:53:26;;;;;;;11.43;10.25;;;;;;;;;;5074756;28;20020;-58
2022/08/15 04:55:53;;;;;;;10.95;9.85;;;;;;;;;;5056951;28;20387;-57
2022/08/15 04:58:18;;;;;;;;;;;;;;;;;;5075325;28;20021;-58
2022/08/15 05:00:59;;;;;;;15.05;12.07;;;;;;;;;;5074232;28;19912;-56
2022/08/15 05:03:25;;;;;;;10.43;9.43;;;;;;;;;;5073388;28;20025;-58
2022/08/15 05:06:12;;;;;;;11.05;9.38;;;;;;;;;;5074299;28;20033;-59
2022/08/15 05:08:39;;;;;;;14.35;10.07;;;;;;;;;;5074183;28;20173;-59
2022/08/15 05:11:08;;;;;;;11.38;9.35;;;;;;;;;;5056164;28;20075;-59
2022/08/15 05:13:38;;;;;;;10.88;9.77;;;;;;;;;;5073829;28;20049;-57
2022/08/15 05:16:07;;;;;;;11.85;10.50;;;;;;;;;;5073612;28;20033;-59
2022/08/15 05:18:34;;;;;;;11.93;10.05;;;;;;;;;;5074769;28;20048;-59
2022/08/15 05:21:00;;;;;;;16.70;10.43;;;;;;;;;;5074067;28;20055;-59
2022/08/15 05:23:27;;;;;;;10.97;9.87;;;;;;;;;;5073866;28;20075;-58
2022/08/15 05:25:54;;;;;;;11.88;10.75;;;;;;;;;;5073897;28;20028;-59
2022/08/15 05:28:21;;;;;;;14.23;11.02;;;;;;;;;;5073401;28;20033;-58
2022/08/15 05:30:48;;;;;;;13.52;10.25;;;;;;;;;;5073875;28;20092;-58
2022/08/15 05:33:15;;;;;;;12.68;10.30;;;;;;;;;;5073739;28;20376;-57
2022/08/15 05:35:43;;;;;;;12.50;11.20;;;;;;;;;;5073873;28;20074;-57
2022/08/15 05:38:16;;;;;;;12.48;10.90;;;;;;;;;;5072756;28;20029;-59
2022/08/15 05:40:51;;;;;;;11.95;10.75;;;;;;;;;;5074084;28;20028;-59
2022/08/15 05:43:22;;;;;;;10.93;9.88;;;;;;;;;;5073699;28;20047;-59
2022/08/15 05:45:51;;;;;;;12.48;10.07;;;;;;;;;;5073766;28;20024;-59
2022/08/15 05:48:21;;;;;;;19.95;11.18;;;;;;;;;;5073615;28;20025;-59
2022/08/15 05:50:56;;;;;;;11.23;10.07;;;;;;;;;;5073481;28;20494;-46
2022/08/15 05:53:37;;;;;;;14.02;9.32;;;;;;;;;;5073188;28;20020;-46
2022/08/15 05:56:18;;;;;;;11.32;10.13;;;;;;;;;;5073462;28;20032;-46
2022/08/15 05:59:10;;;;;;;14.43;9.55;;;;;;;;;;5062414;28;20472;-47
2022/08/15 06:01:41;;;;;;;21.77;10.20;;;;;;;;;;5068450;28;20040;-47
2022/08/15 06:04:25;;;;;;;10.60;9.60;;;;;;;;;;5073348;28;20029;-45
2022/08/15 06:06:52;;;;;;;9.02;8.18;;;;;;;;;;5073279;28;20027;-48
2022/08/15 06:09:18;;;;;;;9.85;7.95;;;;;;;;;;5073427;28;20505;-47
2022/08/15 06:11:47;;;;;;;8.27;7.33;;;;;;;;;;5072950;28;20020;-47
2022/08/15 06:14:31;;;;;;;8.85;7.95;;;;;;;;;;5072629;28;20029;-47
2022/08/15 06:17:01;;;;;;;7.05;6.43;;;;;;;;;;5072312;28;20119;-46
2022/08/15 06:19:38;;;;;;;9.68;6.15;;;;;;;;;;5072871;28;20036;-47
2022/08/15 06:22:33;;;;;;;6.13;5.35;;;;;;;;;;5054515;28;20383;-48
2022/08/15 06:25:18;;;;;;;7.03;5.45;;;;;;;;;;5051515;28;20040;-47
2022/08/15 06:27:47;;;;;;;12.50;5.28;;;;;;;;;;5072003;28;20524;-48
2022/08/15 06:30:22;;;;;;;6.97;5.10;;;;;;;;;;5072752;28;20036;-46
2022/08/15 06:32:48;;;;;;;5.57;4.90;;;;;;;;;;5072378;28;20029;-47
2022/08/15 06:35:14;;;;;;;6.70;4.37;;;;;;;;;;5072651;28;20479;-49
2022/08/15 06:37:41;;;;;;;4.65;3.92;;;;;;;;;;5072744;28;20552;-46
2022/08/15 06:40:25;;;;;;;5.70;4.00;;;;;;;;;;5072529;28;20028;-47
2022/08/15 06:42:51;;;;;;;3.97;3.47;;;;;;;;;;5071927;28;20032;-47
2022/08/15 06:45:22;;;;;;;4.23;3.43;;;;;;;;;;5072600;28;20032;-47
2022/08/15 06:47:54;;;;;;;8.48;3.70;;;;;;;;;;5072220;28;20358;-47
2022/08/15 06:50:32;;;;;;;5.60;3.20;;;;;;;;;;5072433;28;20042;-49
2022/08/15 06:53:10;;;;;;;4.75;2.85;;;;;;;;;;5072071;28;20474;-46
2022/08/15 06:55:44;;;;;;;3.80;3.05;;;;;;;;;;5072059;28;20020;-47
2022/08/15 06:58:16;;;;;;;3.88;2.75;;;;;;;;;;5072399;28;20029;-47
2022/08/15 07:00:52;;;;;;;3.97;2.63;;;;;;;;;;5072080;28;20021;-50
2022/08/15 07:03:24;;;;;;;6.55;2.60;;;;;;;;;;5071970;28;20028;-46
2022/08/15 07:05:54;;;;;;;5.93;2.35;;;;;;;;;;5072004;28;20386;-46
2022/08/15 07:08:23;;;;;;;4.30;2.60;;;;;;;;;;5071920;28;20549;-47
2022/08/15 07:10:53;;;;;;;7.32;4.57;;;;;;;;;;5071983;28;20514;-47
2022/08/15 07:13:45;;;;;;;5.30;3.03;;;;;;;;;;5072202;28;20423;-46
2022/08/15 07:16:24;;;;;;;2.97;2.20;;;;;;;;;;5033804;28;20411;-46
2022/08/15 07:18:52;;;;;;;2.30;1.98;;;;;;;;;;5071827;28;20028;-47
2022/08/15 07:21:20;;;;;;;4.35;2.13;;;;;;;;;;5072205;28;20029;-47
2022/08/15 07:24:18;;;;;;;6.40;2.20;;;;;;;;;;5071632;28;20154;-47
2022/08/15 07:26:54;;;;;;;4.22;2.30;;;;;;;;;;5016665;28;20036;-47
2022/08/15 07:29:38;;;;;;;3.67;1.90;;;;;;;;;;5052866;28;20036;-48
2022/08/15 07:32:07;;;;;;;2.75;1.77;;;;;;;;;;5071313;28;20033;-49
2022/08/15 07:34:35;;;;;;;2.95;1.67;;;;;;;;;;5071357;28;20070;-47
2022/08/15 07:37:03;;;;;;;4.13;2.55;;;;;;;;;;5071158;28;20024;-49
2022/08/15 07:39:39;;;;;;;3.05;1.73;;;;;;;;;;5065078;28;20021;-46
2022/08/15 07:42:15;;;;;;;5.65;1.98;;;;;;;;;;5053380;28;20077;-47
2022/08/15 07:44:49;;;;;;;4.03;1.90;;;;;;;;;;5071150;28;20024;-47
2022/08/15 07:47:24;;;;;;;2.40;1.90;;;;;;;;;;5070985;28;20028;-47
2022/08/15 07:50:10;;;;;;;6.78;1.98;;;;;;;;;;5070685;28;20025;-50
2022/08/15 07:52:37;;;;;;;3.65;2.40;;;;;;;;;;5070845;28;20038;-45
2022/08/15 07:55:33;;;;;;;4.85;2.13;;;;;;;;;;5071207;28;20103;-45
2022/08/15 07:57:59;;;;;;;2.30;1.85;;;;;;;;;;5049957;28;20036;-46
2022/08/15 08:00:27;;;;;;;4.20;2.60;;;;;;;;;;5070702;28;20028;-47
2022/08/15 08:03:09;;;;;;;3.10;2.58;;;;;;;;;;5070936;28;20036;-45
2022/08/15 08:05:43;;;;;;;5.85;2.58;;;;;;;;;;5071317;28;20386;-45
2022/08/15 08:08:09;;;;;;;4.25;2.95;;;;;;;;;;5071202;28;20020;-47
2022/08/15 08:10:47;;;;;;;3.92;2.83;;;;;;;;;;5071035;28;20024;-46
2022/08/15 08:13:13;;;;;;;4.90;2.35;;;;;;;;;;5071153;28;20074;-47
2022/08/15 08:15:49;;;;;;;3.85;2.10;;;;;;;;;;5071209;28;20021;-47
2022/08/15 08:18:15;;;;;;;3.28;2.00;;;;;;;;;;5071204;28;20043;-47
2022/08/15 08:20:50;;;;;;;3.13;2.03;;;;;;;;;;5070934;28;20029;-46
2022/08/15 08:23:26;;;;;;;4.25;2.22;;;;;;;;;;5070055;28;20254;-57
2022/08/15 08:25:52;;;;;;;2.65;2.30;;;;;;;;;;5070367;28;20016;-56
2022/08/15 08:28:21;;;;;;;3.20;2.47;;;;;;;;;;5070492;28;20036;-54
2022/08/15 08:30:47;;;;;;;2.85;2.10;;;;;;;;;;5070094;28;20025;-56
2022/08/15 08:33:19;;;;;;;6.60;2.40;;;;;;;;;;5070832;28;20636;-55
2022/08/15 08:35:52;;;;;;;2.00;1.67;;;;;;;;;;5070274;28;20261;-57
2022/08/15 08:38:24;;;;;;;3.17;2.10;;;;;;;;;;5070559;28;20513;-57
2022/08/15 08:43:58;;;;;;;9.85;1.98;;;;;;;;;;5058521;28;20044;-55
2022/08/15 08:46:30;;;;;;;5.25;2.05;;;;;;;;;;5070000;28;20039;-57
2022/08/15 08:49:10;;;;;;;7.57;2.38;;;;;;;;;;5070957;28;20032;-56
2022/08/15 08:52:02;;;;;;;3.35;2.33;;;;;;;;;;5070908;28;20043;-55
2022/08/15 08:54:47;;;;;;;2.13;1.67;;;;;;;;;;5070470;28;20020;-57
2022/08/15 08:57:17;;;;;;;3.45;2.53;;;;;;;;;;5070525;28;20047;-57
2022/08/15 08:59:51;;;;;;;2.47;1.55;;;;;;;;;;5070907;28;20028;-57
2022/08/15 09:02:21;;;;;;;3.45;2.28;;;;;;;;;;5070480;28;20028;-55
2022/08/15 09:04:51;;;;;;;6.03;2.53;;;;;;;;;;5070667;28;20382;-56
2022/08/15 09:07:20;;;;;;;4.32;2.10;;;;;;;;;;5070619;28;20035;-55
2022/08/15 09:09:49;;;;;;;7.35;2.28;;;;;;;;;;5069948;28;20024;-56
2022/08/15 09:15:06;;;;;;;6.38;2.20;;;;;;;;;;5074982;28;20031;-54
2022/08/15 09:17:34;;;;;;;3.47;1.67;;;;;;;;;;5074274;28;20036;-55
2022/08/15 09:20:05;;;;;;;3.33;1.73;;;;;;;;;;5074387;28;20031;-57
2022/08/15 09:22:31;;;;;;;1.73;1.50;;;;;;;;;;5074403;28;20036;-57
2022/08/15 09:24:57;;;;;;;5.72;2.22;;;;;;;;;;5073516;28;20494;-56
2022/08/15 09:27:28;;;;;;;4.95;1.92;;;;;;;;;;5074142;28;20479;-55
2022/08/15 09:30:03;;;;;;;5.38;2.70;;;;;;;;;;5074257;28;20056;-53
2022/08/15 09:32:29;;;;;;;3.30;1.90;;;;;;;;;;5074173;28;20095;-56
2022/08/15 09:35:04;;;;;;;2.25;2.05;;;;;;;;;;5074092;28;20025;-55
2022/08/15 09:37:51;;;;;;;3.00;2.33;;;;;;;;;;5074013;28;20028;-55
2022/08/15 09:40:29;;;;;;;2.47;1.90;;;;;;;;;;5023626;28;20041;-54
2022/08/15 09:42:55;;;;;;;4.47;2.40;;;;;;;;;;5073903;28;20024;-56
2022/08/15 09:45:34;;;;;;;2.22;2.03;;;;;;;;;;5073896;28;20116;-56
2022/08/15 09:48:18;;;;;;;2.17;1.58;;;;;;;;;;5073898;28;20067;-56
2022/08/15 09:51:12;;;;;;;4.70;2.30;;;;;;;;;;5073588;28;20031;-56
2022/08/15 09:53:47;;;;;;;3.17;2.00;;;;;;;;;;5073756;28;20475;-56
2022/08/15 09:56:17;;;;;;;2.85;1.40;;;;;;;;;;5074303;28;20676;-57
2022/08/15 09:58:55;;;;;;;2.33;1.55;;;;;;;;;;5074138;28;20032;-55
2022/08/15 10:01:23;;;;;;;6.47;3.33;;;;;;;;;;5073655;28;20032;-56
2022/08/15 10:03:51;;;;;;;3.08;1.70;;;;;;;;;;5055516;28;20028;-53
2022/08/15 10:06:17;;;;;;;3.80;1.50;;;;;;;;;;5073449;28;20036;-56
2022/08/15 10:08:52;;;;;;;2.20;1.90;;;;;;;;;;5073395;28;20025;-57
2022/08/15 10:11:46;;;;;;;6.40;2.35;;;;;;;;;;5073534;28;20028;-55
2022/08/15 10:14:25;;;;;;;6.03;2.90;;;;;;;;;;5035871;28;20041;-57
2022/08/15 10:16:52;;;;;;;5.53;3.50;;;;;;;;;;5073228;28;20120;-56
2022/08/15 10:19:29;;;;;;;5.07;2.70;;;;;;;;;;5073419;28;20395;-56
2022/08/15 10:21:55;;;;;;;4.45;3.42;;;;;;;;;;5073133;28;20498;-55
2022/08/15 10:24:24;;;;;;;4.15;2.75;;;;;;;;;;5072521;28;20021;-56
2022/08/15 10:27:08;;;;;;;12.65;3.03;;;;;;;;;;5073035;28;20029;-63
2022/08/15 10:29:36;;;;;;;7.00;2.05;;;;;;;;;;5073300;28;20443;-62
2022/08/15 10:32:03;;;;;;;2.72;1.70;;;;;;;;;;5073139;28;20056;-65
2022/08/15 10:34:37;;;;;;;5.88;2.55;;;;;;;;;;5072828;28;20498;-64
2022/08/15 10:37:09;;;;;;;2.40;2.20;;;;;;;;;;5073013;28;20020;-64
2022/08/15 10:39:44;;;;;;;10.15;3.15;;;;;;;;;;5072907;28;20017;-61
2022/08/15 10:42:17;;;;;;;3.45;2.40;;;;;;;;;;5072786;28;20020;-64
2022/08/15 10:45:02;;;;;;;4.32;2.10;;;;;;;;;;5072668;28;20469;-63
2022/08/15 10:47:47;;;;;;;6.93;2.13;;;;;;;;;;5072568;28;20029;-66
2022/08/15 10:50:30;;;;;;;4.28;1.50;;;;;;;;;;5068540;28;20017;-66
2022/08/15 10:53:15;;;;;;;3.83;2.28;;;;;;;;;;5071019;28;20033;-62
2022/08/15 10:55:42;;;;;;;2.83;2.03;;;;;;;;;;5054419;28;20024;-60
2022/08/15 10:58:09;;;;;;;;;;;;;;;;;;5060999;28;20029;-56
2022/08/15 11:00:38;;;;;;;3.58;2.15;;;;;;;;;;5069001;28;19944;-58
2022/08/15 11:03:11;;;;;;;3.05;2.17;;;;;;;;;;5070960;28;20025;-57
2022/08/15 11:05:37;;;;;;;5.18;1.90;;;;;;;;;;5071517;28;20113;-57
2022/08/15 11:08:03;;;;;;;7.00;2.17;;;;;;;;;;5070575;28;20490;-57
2022/08/15 11:10:30;;;;;;;3.90;2.10;;;;;;;;;;5053231;28;20510;-57
2022/08/15 11:13:01;;;;;;;2.50;2.00;;;;;;;;;;5070168;28;20043;-57
2022/08/15 11:15:32;;;;;;;22.63;16.13;;;;;;;;;;5069986;28;20032;-61
2022/08/15 11:18:04;;;;;;;3.85;2.72;;;;;;;;;;5074511;22;20043;-61
2022/08/15 11:20:36;;;;;;;3.53;2.20;;;;;;;;;;5069580;28;20052;-59
2022/08/15 11:23:03;;;;;;;4.50;1.98;;;;;;;;;;5070096;28;20024;-60
2022/08/15 11:25:31;;;;;;;4.50;1.90;;;;;;;;;;5071761;28;20020;-61
2022/08/15 11:28:10;;;;;;;7.47;2.03;;;;;;;;;;5068084;28;20559;-61
2022/08/15 11:30:38;;;;;;;5.18;1.80;;;;;;;;;;5050341;28;20036;-61
2022/08/15 11:33:22;;;;;;;5.85;2.42;;;;;;;;;;5057547;28;20033;-61
2022/08/15 11:35:50;;;;;;;3.90;1.80;;;;;;;;;;5066885;28;20027;-61
2022/08/15 11:38:17;;;;;;;2.33;1.98;;;;;;;;;;5065922;28;20044;-61
2022/08/15 11:40:48;;;;;;;7.00;2.63;;;;;;;;;;5028206;28;20076;-61
2022/08/15 11:43:17;;;;;;;5.47;3.33;;;;;;;;;;5029848;28;20388;-61
2022/08/15 11:45:45;;;;;;;5.10;1.58;;;;;;;;;;5045016;28;20104;-61
2022/08/15 11:48:13;;;;;;;8.75;2.33;;;;;;;;;;5051066;28;20506;-61
2022/08/15 11:50:40;;;;;;;2.63;1.98;;;;;;;;;;5033567;28;20048;-61
2022/08/15 11:53:08;;;;;;;4.25;2.15;;;;;;;;;;5062971;28;20391;-60
2022/08/15 11:55:34;;;;;;;13.05;2.85;;;;;;;;;;5051349;28;20021;-61
2022/08/15 11:58:01;;;;;;;2.67;1.95;;;;;;;;;;5051643;28;20078;-61
2022/08/15 12:00:30;;;;;;;7.22;2.25;;;;;;;;;;5051130;28;20036;-61
2022/08/15 12:02:56;;;;;;;5.55;2.80;;;;;;;;;;5034186;28;20044;-60
2022/08/15 12:05:48;;;;;;;3.03;2.15;;;;;;;;;;5050975;28;20032;-61
2022/08/15 12:08:20;;;;;;;3.55;2.85;;;;;;;;;;5046715;28;20071;-61
2022/08/15 12:10:46;;;;;;;3.63;2.33;;;;;;;;;;5050727;28;20096;-61
2022/08/15 12:13:16;;;;;;;2.22;1.73;;;;;;;;;;5051152;28;20029;-61
2022/08/15 12:15:44;;;;;;;2.35;1.73;;;;;;;;;;5051010;28;20028;-61
2022/08/15 12:18:13;;;;;;;4.68;2.75;;;;;;;;;;5050882;28;20036;-60
2022/08/15 12:20:46;;;;;;;3.47;1.90;;;;;;;;;;5051244;28;20090;-59
2022/08/15 12:23:25;;;;;;;4.45;2.47;;;;;;;;;;5063264;28;20033;-61
2022/08/15 12:25:53;;;;;;;5.65;2.22;;;;;;;;;;5022590;28;20036;-61
2022/08/15 12:28:20;;;;;;;13.02;2.63;;;;;;;;;;5050635;28;20074;-61
2022/08/15 12:30:47;;;;;;;6.57;2.60;;;;;;;;;;5033276;28;20025;-61
2022/08/15 12:33:13;;;;;;;3.35;1.98;;;;;;;;;;5050632;28;20609;-61
2022/08/15 12:35:39;;;;;;;;;;;;;;;;;;5051421;28;20021;-59
2022/08/15 12:38:06;;;;;;;4.38;2.63;;;;;;;;;;5050908;28;19924;-60
2022/08/15 12:40:32;;;;;;;3.47;2.13;;;;;;;;;;5050808;28;20025;-61
2022/08/15 12:42:58;;;;;;;4.13;2.25;;;;;;;;;;5050531;28;20029;-61
2022/08/15 12:45:24;;;;;;;2.80;2.10;;;;;;;;;;5050724;28;20523;-60
2022/08/15 12:47:50;;;;;;;5.25;2.35;;;;;;;;;;5034891;28;20503;-61
2022/08/15 12:50:16;;;;;;;5.45;2.08;;;;;;;;;;5054982;28;20037;-61
2022/08/15 12:52:44;;;;;;;5.03;2.10;;;;;;;;;;5054472;28;20021;-61
2022/08/15 12:55:10;;;;;;;3.25;1.83;;;;;;;;;;5059652;28;20029;-60
2022/08/15 12:57:36;;;;;;;3.15;2.60;;;;;;;;;;5036527;28;20021;-60
2022/08/15 13:00:07;;;;;;;;;;;;;;;;;;5037076;28;20033;-61
2022/08/15 13:02:35;;;;;;;5.20;2.00;;;;;;;;;;5054515;28;19958;-62
2022/08/15 13:05:05;;;;;;;5.57;2.05;;;;;;;;;;5054245;28;20025;-61
2022/08/15 13:07:31;;;;;;;6.20;2.38;;;;;;;;;;5037031;28;20036;-61
2022/08/15 13:09:58;;;;;;;4.10;1.85;;;;;;;;;;5054217;28;20021;-61
2022/08/15 13:12:24;;;;;;;3.55;2.05;;;;;;;;;;5036566;28;20082;-61
2022/08/15 13:14:50;;;;;;;5.70;2.53;;;;;;;;;;5053783;28;20487;-62
2022/08/15 13:17:16;;;;;;;2.80;1.80;;;;;;;;;;5053791;28;20505;-61
2022/08/15 13:25:15;;;;;;;5.15;2.00;;;;;;;;;;5054320;28;20044;-61
2022/08/15 13:27:44;;;;;;;7.55;2.28;;;;;;;;;;5054221;28;20025;-62
2022/08/15 13:30:11;;;;;;;5.40;1.80;;;;;;;;;;5053876;28;20082;-61
2022/08/15 13:32:37;;;;;;;2.65;1.83;;;;;;;;;;5053904;28;20029;-62
2022/08/15 13:35:03;;;;;;;;;;;;;;;;;;5054406;28;20415;-60
2022/08/15 13:37:29;;;;;;;3.28;1.65;;;;;;;;;;5054144;28;20402;-60
2022/08/15 13:39:56;;;;;;;;;;;;;;;;;;5053825;28;20682;-59
2022/08/15 13:42:22;;;;;;;3.72;2.08;;;;;;;;;;5035993;28;20007;-59
2022/08/15 13:44:49;;;;;;;4.47;1.90;;;;;;;;;;5053666;28;20063;-59
2022/08/15 13:47:18;;;;;;;13.95;2.67;;;;;;;;;;5053723;28;20036;-59
2022/08/15 13:49:44;;;;;;;7.70;1.90;;;;;;;;;;5053606;28;20046;-59
2022/08/15 13:52:10;;;;;;;4.20;1.73;;;;;;;;;;5053600;28;20029;-60
2022/08/15 13:54:36;;;;;;;6.47;2.38;;;;;;;;;;5053262;28;20027;-60
2022/08/15 13:57:03;;;;;;;4.97;2.15;;;;;;;;;;5054109;28;20032;-60
2022/08/15 13:59:32;;;;;;;2.53;1.92;;;;;;;;;;5053387;28;20033;-60
2022/08/15 14:01:58;;;;;;;2.65;1.80;;;;;;;;;;5052677;28;20521;-60
2022/08/15 14:04:25;;;;;;;3.55;1.50;;;;;;;;;;5053302;28;20028;-60
2022/08/15 14:06:52;;;;;;;2.75;1.67;;;;;;;;;;5052818;28;20025;-60
2022/08/15 14:09:18;;;;;;;4.43;1.90;;;;;;;;;;5034112;28;20031;-60
2022/08/15 14:11:44;;;;;;;5.72;1.70;;;;;;;;;;5053347;28;20033;-60
2022/08/15 14:14:10;;;;;;;4.47;1.70;;;;;;;;;;5053039;28;20044;-60
2022/08/15 14:16:37;;;;;;;7.10;2.13;;;;;;;;;;5053404;28;20025;-60
2022/08/15 14:19:04;;;;;;;5.32;1.73;;;;;;;;;;5053255;28;20033;-61
2022/08/15 14:21:32;;;;;;;2.70;1.70;;;;;;;;;;5055767;28;20033;-60
2022/08/15 14:24:00;;;;;;;2.47;1.90;;;;;;;;;;5041566;28;20033;-60
2022/08/15 14:26:26;;;;;;;3.22;1.80;;;;;;;;;;5034900;28;20074;-60
2022/08/15 14:28:53;;;;;;;3.15;1.92;;;;;;;;;;5034811;28;20036;-61
2022/08/15 14:31:19;;;;;;;3.67;1.90;;;;;;;;;;5053119;28;20079;-61
2022/08/15 14:33:45;;;;;;;6.05;1.83;;;;;;;;;;5052450;28;20120;-61
2022/08/15 14:36:11;;;;;;;3.20;1.98;;;38.60;34.40;;;;;;5052082;28;20412;-60
2022/08/15 14:38:37;;;;;;;4.85;2.10;;;46.80;25.60;;;;;;5020736;28;20059;-60
2022/08/15 14:41:03;;;;;;;8.38;1.88;;;45.00;26.10;;;;;;5052979;28;20124;-60
2022/08/15 14:43:30;;;;;;;3.05;2.00;;;43.90;27.10;;;;;;5052594;28;20506;-60
2022/08/15 14:45:58;;;;;;;4.05;2.00;;;;;;;;;;5052189;28;20036;-60
2022/08/15 14:48:27;;;;;;;3.53;1.73;;;;;;;;;;5039250;28;20395;-59
2022/08/15 14:50:58;;;;;;;2.75;1.98;;;;;;;;;;5046637;28;20402;-60
2022/08/15 14:53:24;;;;;;;4.15;2.40;;;;;;;;;;5034329;28;20025;-59
2022/08/15 14:55:51;;;;;;;2.10;1.90;;;;;;;;;;5034271;28;20049;-60
2022/08/15 14:58:18;;;;;;;3.78;1.98;;;;;;;;;;5052023;28;20025;-59
2022/08/15 15:00:45;;;;;;;5.60;1.85;;;;;;;;;;5055400;28;20171;-60
2022/08/15 15:03:12;;;;;;;5.35;2.10;;;;;;;;;;5051651;28;20094;-60